sensor_id;sensor_type;location;lat;lon;timestamp;P1;durP1;ratioP1;P2;durP2;ratioP2
75698;SDS011;64313;51.018;13.742;2023-08-24T00:01:27;4.53;;;2.05;;
75698;SDS011;64313;51.018;13.742;2023-08-24T00:03:53;4.97;;;2.42;;
75698;SDS011;64313;51.018;13.742;2023-08-24T00:06:18;4.40;;;2.20;;
75698;SDS011;64313;51.018;13.742;2023-08-24T00:08:43;4.72;;;2.30;;
75698;SDS011;64313;51.018;13.742;2023-08-24T00:11:09;6.28;;;2.20;;
75698;SDS011;64313;51.018;13.742;2023-08-24T00:13:40;6.53;;;2.35;;
75698;SDS011;64313;51.018;13.742;2023-08-24T00:16:13;5.03;;;2.45;;
75698;SDS011;64313;51.018;13.742;2023-08-24T00:18:40;4.40;;;2.13;;
75698;SDS011;64313;51.018;13.742;2023-08-24T00:21:06;4.97;;;2.40;;
75698;SDS011;64313;51.018;13.742;2023-08-24T00:23:32;4.70;;;2.13;;
75698;SDS011;64313;51.018;13.742;2023-08-24T00:25:58;4.95;;;2.40;;
75698;SDS011;64313;51.018;13.742;2023-08-24T00:28:25;5.95;;;2.22;;
75698;SDS011;64313;51.018;13.742;2023-08-24T00:30:52;4.22;;;2.20;;
75698;SDS011;64313;51.018;13.742;2023-08-24T00:33:18;4.00;;;2.10;;
75698;SDS011;64313;51.018;13.742;2023-08-24T00:35:44;5.80;;;2.80;;
75698;SDS011;64313;51.018;13.742;2023-08-24T00:38:10;5.30;;;2.70;;
75698;SDS011;64313;51.018;13.742;2023-08-24T00:40:35;4.10;;;2.20;;
75698;SDS011;64313;51.018;13.742;2023-08-24T00:43:01;5.35;;;2.53;;
75698;SDS011;64313;51.018;13.742;2023-08-24T00:45:27;4.57;;;2.30;;
75698;SDS011;64313;51.018;13.742;2023-08-24T00:47:55;5.35;;;2.20;;
75698;SDS011;64313;51.018;13.742;2023-08-24T00:50:20;5.03;;;2.50;;
75698;SDS011;64313;51.018;13.742;2023-08-24T00:52:46;5.35;;;2.47;;
75698;SDS011;64313;51.018;13.742;2023-08-24T00:55:13;5.25;;;2.40;;
75698;SDS011;64313;51.018;13.742;2023-08-24T00:57:39;4.57;;;2.40;;
75698;SDS011;64313;51.018;13.742;2023-08-24T01:00:07;5.00;;;2.25;;
75698;SDS011;64313;51.018;13.742;2023-08-24T01:02:36;4.72;;;2.30;;
75698;SDS011;64313;51.018;13.742;2023-08-24T01:05:02;4.55;;;2.20;;
75698;SDS011;64313;51.018;13.742;2023-08-24T01:07:29;4.75;;;2.33;;
75698;SDS011;64313;51.018;13.742;2023-08-24T01:09:55;4.82;;;2.30;;
75698;SDS011;64313;51.018;13.742;2023-08-24T01:14:58;4.60;;;2.42;;
75698;SDS011;64313;51.018;13.742;2023-08-24T01:17:42;5.22;;;2.40;;
75698;SDS011;64313;51.018;13.742;2023-08-24T01:20:09;6.38;;;2.60;;
75698;SDS011;64313;51.018;13.742;2023-08-24T01:22:37;4.05;;;2.20;;
75698;SDS011;64313;51.018;13.742;2023-08-24T01:25:15;4.65;;;2.42;;
75698;SDS011;64313;51.018;13.742;2023-08-24T01:27:43;4.55;;;2.53;;
75698;SDS011;64313;51.018;13.742;2023-08-24T01:30:09;4.55;;;2.40;;
75698;SDS011;64313;51.018;13.742;2023-08-24T01:32:36;6.30;;;2.38;;
75698;SDS011;64313;51.018;13.742;2023-08-24T01:35:03;4.45;;;2.28;;
75698;SDS011;64313;51.018;13.742;2023-08-24T01:37:30;4.40;;;2.33;;
75698;SDS011;64313;51.018;13.742;2023-08-24T01:40:03;4.85;;;2.30;;
75698;SDS011;64313;51.018;13.742;2023-08-24T01:42:35;4.53;;;2.33;;
75698;SDS011;64313;51.018;13.742;2023-08-24T01:45:06;4.28;;;2.30;;
75698;SDS011;64313;51.018;13.742;2023-08-24T01:47:34;4.97;;;2.40;;
75698;SDS011;64313;51.018;13.742;2023-08-24T01:50:01;4.70;;;2.35;;
75698;SDS011;64313;51.018;13.742;2023-08-24T01:52:27;4.53;;;2.33;;
75698;SDS011;64313;51.018;13.742;2023-08-24T01:54:53;5.22;;;2.20;;
75698;SDS011;64313;51.018;13.742;2023-08-24T01:57:18;4.13;;;2.03;;
75698;SDS011;64313;51.018;13.742;2023-08-24T01:59:44;4.22;;;2.13;;
75698;SDS011;64313;51.018;13.742;2023-08-24T02:02:09;4.32;;;2.10;;
75698;SDS011;64313;51.018;13.742;2023-08-24T02:04:34;4.60;;;2.42;;
75698;SDS011;64313;51.018;13.742;2023-08-24T02:07:01;4.05;;;2.38;;
75698;SDS011;64313;51.018;13.742;2023-08-24T02:09:26;5.13;;;2.67;;
75698;SDS011;64313;51.018;13.742;2023-08-24T02:11:52;4.10;;;2.45;;
75698;SDS011;64313;51.018;13.742;2023-08-24T02:14:17;4.47;;;2.33;;
75698;SDS011;64313;51.018;13.742;2023-08-24T02:16:42;5.10;;;2.50;;
75698;SDS011;64313;51.018;13.742;2023-08-24T02:19:08;5.03;;;2.50;;
75698;SDS011;64313;51.018;13.742;2023-08-24T02:21:35;5.10;;;2.25;;
75698;SDS011;64313;51.018;13.742;2023-08-24T02:24:01;4.50;;;2.50;;
75698;SDS011;64313;51.018;13.742;2023-08-24T02:26:26;5.60;;;2.92;;
75698;SDS011;64313;51.018;13.742;2023-08-24T02:28:52;4.07;;;2.20;;
75698;SDS011;64313;51.018;13.742;2023-08-24T02:31:17;5.76;;;2.48;;
75698;SDS011;64313;51.018;13.742;2023-08-24T02:33:42;4.65;;;2.60;;
75698;SDS011;64313;51.018;13.742;2023-08-24T02:36:08;7.50;;;2.90;;
75698;SDS011;64313;51.018;13.742;2023-08-24T02:38:34;6.05;;;2.80;;
75698;SDS011;64313;51.018;13.742;2023-08-24T02:41:02;5.00;;;2.40;;
75698;SDS011;64313;51.018;13.742;2023-08-24T02:43:29;5.18;;;2.67;;
75698;SDS011;64313;51.018;13.742;2023-08-24T02:45:59;5.07;;;2.42;;
75698;SDS011;64313;51.018;13.742;2023-08-24T02:48:25;5.63;;;2.63;;
75698;SDS011;64313;51.018;13.742;2023-08-24T02:50:50;5.13;;;2.95;;
75698;SDS011;64313;51.018;13.742;2023-08-24T02:53:16;4.70;;;2.63;;
75698;SDS011;64313;51.018;13.742;2023-08-24T02:55:41;4.45;;;2.35;;
75698;SDS011;64313;51.018;13.742;2023-08-24T02:58:06;4.50;;;2.60;;
75698;SDS011;64313;51.018;13.742;2023-08-24T03:00:32;4.55;;;2.50;;
75698;SDS011;64313;51.018;13.742;2023-08-24T03:02:58;6.07;;;2.70;;
75698;SDS011;64313;51.018;13.742;2023-08-24T03:05:24;6.20;;;2.70;;
75698;SDS011;64313;51.018;13.742;2023-08-24T03:07:49;4.60;;;2.83;;
75698;SDS011;64313;51.018;13.742;2023-08-24T03:10:14;5.28;;;2.70;;
75698;SDS011;64313;51.018;13.742;2023-08-24T03:12:40;4.95;;;2.88;;
75698;SDS011;64313;51.018;13.742;2023-08-24T03:15:05;4.50;;;2.70;;
75698;SDS011;64313;51.018;13.742;2023-08-24T03:17:32;4.85;;;2.70;;
75698;SDS011;64313;51.018;13.742;2023-08-24T03:19:57;5.55;;;2.60;;
75698;SDS011;64313;51.018;13.742;2023-08-24T03:22:23;4.70;;;2.60;;
75698;SDS011;64313;51.018;13.742;2023-08-24T03:24:48;5.00;;;2.70;;
75698;SDS011;64313;51.018;13.742;2023-08-24T03:27:14;6.47;;;2.58;;
75698;SDS011;64313;51.018;13.742;2023-08-24T03:29:41;4.25;;;2.22;;
75698;SDS011;64313;51.018;13.742;2023-08-24T03:32:06;6.18;;;2.45;;
75698;SDS011;64313;51.018;13.742;2023-08-24T03:34:31;5.25;;;2.60;;
75698;SDS011;64313;51.018;13.742;2023-08-24T03:36:57;5.75;;;2.70;;
75698;SDS011;64313;51.018;13.742;2023-08-24T03:39:22;5.22;;;2.67;;
75698;SDS011;64313;51.018;13.742;2023-08-24T03:41:48;5.63;;;2.72;;
75698;SDS011;64313;51.018;13.742;2023-08-24T03:44:13;4.72;;;2.40;;
75698;SDS011;64313;51.018;13.742;2023-08-24T03:46:39;5.65;;;2.80;;
75698;SDS011;64313;51.018;13.742;2023-08-24T03:49:04;5.78;;;2.90;;
75698;SDS011;64313;51.018;13.742;2023-08-24T03:51:29;6.28;;;3.15;;
75698;SDS011;64313;51.018;13.742;2023-08-24T03:53:56;5.30;;;2.75;;
75698;SDS011;64313;51.018;13.742;2023-08-24T03:56:21;5.53;;;2.65;;
75698;SDS011;64313;51.018;13.742;2023-08-24T03:58:47;5.47;;;2.83;;
75698;SDS011;64313;51.018;13.742;2023-08-24T04:01:13;5.22;;;2.95;;
75698;SDS011;64313;51.018;13.742;2023-08-24T04:03:38;6.13;;;2.90;;
75698;SDS011;64313;51.018;13.742;2023-08-24T04:06:04;7.65;;;2.80;;
75698;SDS011;64313;51.018;13.742;2023-08-24T04:08:30;4.60;;;2.88;;
75698;SDS011;64313;51.018;13.742;2023-08-24T04:10:56;5.07;;;2.70;;
75698;SDS011;64313;51.018;13.742;2023-08-24T04:13:23;6.05;;;2.90;;
75698;SDS011;64313;51.018;13.742;2023-08-24T04:15:49;6.82;;;2.90;;
75698;SDS011;64313;51.018;13.742;2023-08-24T04:18:16;5.10;;;3.03;;
75698;SDS011;64313;51.018;13.742;2023-08-24T04:20:41;6.13;;;2.85;;
75698;SDS011;64313;51.018;13.742;2023-08-24T04:23:06;4.93;;;2.90;;
75698;SDS011;64313;51.018;13.742;2023-08-24T04:25:32;7.38;;;3.10;;
75698;SDS011;64313;51.018;13.742;2023-08-24T04:27:57;7.03;;;2.88;;
75698;SDS011;64313;51.018;13.742;2023-08-24T04:30:22;4.57;;;2.55;;
75698;SDS011;64313;51.018;13.742;2023-08-24T04:32:48;5.53;;;2.90;;
75698;SDS011;64313;51.018;13.742;2023-08-24T04:35:13;5.65;;;2.70;;
75698;SDS011;64313;51.018;13.742;2023-08-24T04:37:39;5.30;;;2.80;;
75698;SDS011;64313;51.018;13.742;2023-08-24T04:40:04;5.30;;;2.92;;
75698;SDS011;64313;51.018;13.742;2023-08-24T04:42:32;4.57;;;2.63;;
75698;SDS011;64313;51.018;13.742;2023-08-24T04:44:58;4.93;;;2.72;;
75698;SDS011;64313;51.018;13.742;2023-08-24T04:47:23;5.20;;;2.70;;
75698;SDS011;64313;51.018;13.742;2023-08-24T04:49:48;4.47;;;2.80;;
75698;SDS011;64313;51.018;13.742;2023-08-24T04:52:14;6.38;;;3.20;;
75698;SDS011;64313;51.018;13.742;2023-08-24T04:54:39;5.13;;;2.80;;
75698;SDS011;64313;51.018;13.742;2023-08-24T04:57:05;5.97;;;2.72;;
75698;SDS011;64313;51.018;13.742;2023-08-24T04:59:31;5.00;;;2.90;;
75698;SDS011;64313;51.018;13.742;2023-08-24T05:01:57;4.80;;;2.70;;
75698;SDS011;64313;51.018;13.742;2023-08-24T05:04:22;5.03;;;2.80;;
75698;SDS011;64313;51.018;13.742;2023-08-24T05:06:47;6.13;;;2.70;;
75698;SDS011;64313;51.018;13.742;2023-08-24T05:09:13;6.85;;;3.10;;
75698;SDS011;64313;51.018;13.742;2023-08-24T05:11:38;5.20;;;2.72;;
75698;SDS011;64313;51.018;13.742;2023-08-24T05:14:03;6.68;;;2.95;;
75698;SDS011;64313;51.018;13.742;2023-08-24T05:16:29;5.85;;;3.00;;
75698;SDS011;64313;51.018;13.742;2023-08-24T05:18:55;4.40;;;2.45;;
75698;SDS011;64313;51.018;13.742;2023-08-24T05:21:20;4.38;;;2.53;;
75698;SDS011;64313;51.018;13.742;2023-08-24T05:23:45;4.88;;;2.33;;
75698;SDS011;64313;51.018;13.742;2023-08-24T05:26:11;5.72;;;2.65;;
75698;SDS011;64313;51.018;13.742;2023-08-24T05:28:36;4.85;;;2.72;;
75698;SDS011;64313;51.018;13.742;2023-08-24T05:31:01;5.60;;;3.25;;
75698;SDS011;64313;51.018;13.742;2023-08-24T05:33:27;8.00;;;3.00;;
75698;SDS011;64313;51.018;13.742;2023-08-24T05:35:52;4.63;;;2.88;;
75698;SDS011;64313;51.018;13.742;2023-08-24T05:38:18;5.07;;;2.80;;
75698;SDS011;64313;51.018;13.742;2023-08-24T05:40:46;5.68;;;2.63;;
75698;SDS011;64313;51.018;13.742;2023-08-24T05:43:13;6.13;;;2.80;;
75698;SDS011;64313;51.018;13.742;2023-08-24T05:45:38;5.18;;;2.72;;
75698;SDS011;64313;51.018;13.742;2023-08-24T05:48:09;4.95;;;2.70;;
75698;SDS011;64313;51.018;13.742;2023-08-24T05:50:35;4.40;;;2.33;;
75698;SDS011;64313;51.018;13.742;2023-08-24T05:53:00;7.07;;;2.72;;
75698;SDS011;64313;51.018;13.742;2023-08-24T05:55:25;5.65;;;2.47;;
75698;SDS011;64313;51.018;13.742;2023-08-24T05:57:51;5.43;;;2.63;;
75698;SDS011;64313;51.018;13.742;2023-08-24T06:00:16;5.07;;;2.72;;
75698;SDS011;64313;51.018;13.742;2023-08-24T06:02:42;5.32;;;2.70;;
75698;SDS011;64313;51.018;13.742;2023-08-24T06:05:08;7.05;;;2.72;;
75698;SDS011;64313;51.018;13.742;2023-08-24T06:07:34;7.28;;;2.67;;
75698;SDS011;64313;51.018;13.742;2023-08-24T06:10:00;5.78;;;2.67;;
75698;SDS011;64313;51.018;13.742;2023-08-24T06:12:25;6.30;;;2.85;;
75698;SDS011;64313;51.018;13.742;2023-08-24T06:14:50;6.15;;;2.95;;
75698;SDS011;64313;51.018;13.742;2023-08-24T06:17:16;5.25;;;2.90;;
75698;SDS011;64313;51.018;13.742;2023-08-24T06:19:42;5.50;;;2.60;;
75698;SDS011;64313;51.018;13.742;2023-08-24T06:22:07;5.18;;;2.83;;
75698;SDS011;64313;51.018;13.742;2023-08-24T06:24:33;5.78;;;2.72;;
75698;SDS011;64313;51.018;13.742;2023-08-24T06:26:58;5.85;;;2.83;;
75698;SDS011;64313;51.018;13.742;2023-08-24T06:29:23;5.97;;;2.65;;
75698;SDS011;64313;51.018;13.742;2023-08-24T06:31:49;5.28;;;2.58;;
75698;SDS011;64313;51.018;13.742;2023-08-24T06:34:14;5.15;;;2.72;;
75698;SDS011;64313;51.018;13.742;2023-08-24T06:36:39;6.18;;;2.90;;
75698;SDS011;64313;51.018;13.742;2023-08-24T06:39:05;5.63;;;3.00;;
75698;SDS011;64313;51.018;13.742;2023-08-24T06:41:34;5.55;;;2.80;;
75698;SDS011;64313;51.018;13.742;2023-08-24T06:44:05;6.13;;;2.85;;
75698;SDS011;64313;51.018;13.742;2023-08-24T06:46:31;4.80;;;2.58;;
75698;SDS011;64313;51.018;13.742;2023-08-24T06:48:56;5.22;;;2.47;;
75698;SDS011;64313;51.018;13.742;2023-08-24T06:51:22;6.22;;;2.72;;
75698;SDS011;64313;51.018;13.742;2023-08-24T06:53:47;5.75;;;2.53;;
75698;SDS011;64313;51.018;13.742;2023-08-24T06:56:14;5.43;;;2.42;;
75698;SDS011;64313;51.018;13.742;2023-08-24T06:58:40;6.30;;;2.50;;
75698;SDS011;64313;51.018;13.742;2023-08-24T07:01:05;5.07;;;2.20;;
75698;SDS011;64313;51.018;13.742;2023-08-24T07:03:31;4.97;;;2.53;;
75698;SDS011;64313;51.018;13.742;2023-08-24T07:05:58;5.40;;;2.80;;
75698;SDS011;64313;51.018;13.742;2023-08-24T07:08:23;5.28;;;2.50;;
75698;SDS011;64313;51.018;13.742;2023-08-24T07:10:49;6.00;;;2.85;;
75698;SDS011;64313;51.018;13.742;2023-08-24T07:13:14;7.78;;;2.80;;
75698;SDS011;64313;51.018;13.742;2023-08-24T07:15:40;5.65;;;2.75;;
75698;SDS011;64313;51.018;13.742;2023-08-24T07:18:05;5.32;;;2.80;;
75698;SDS011;64313;51.018;13.742;2023-08-24T07:20:32;4.72;;;2.42;;
75698;SDS011;64313;51.018;13.742;2023-08-24T07:22:58;6.28;;;3.00;;
75698;SDS011;64313;51.018;13.742;2023-08-24T07:25:24;4.63;;;2.58;;
75698;SDS011;64313;51.018;13.742;2023-08-24T07:27:49;5.53;;;2.63;;
75698;SDS011;64313;51.018;13.742;2023-08-24T07:30:14;7.38;;;2.58;;
75698;SDS011;64313;51.018;13.742;2023-08-24T07:32:40;6.85;;;2.90;;
75698;SDS011;64313;51.018;13.742;2023-08-24T07:35:06;4.88;;;2.40;;
75698;SDS011;64313;51.018;13.742;2023-08-24T07:37:32;6.00;;;2.63;;
75698;SDS011;64313;51.018;13.742;2023-08-24T07:39:58;5.70;;;2.40;;
75698;SDS011;64313;51.018;13.742;2023-08-24T07:42:23;6.00;;;2.53;;
75698;SDS011;64313;51.018;13.742;2023-08-24T07:44:49;8.02;;;2.70;;
75698;SDS011;64313;51.018;13.742;2023-08-24T07:47:15;6.80;;;2.30;;
75698;SDS011;64313;51.018;13.742;2023-08-24T07:49:40;5.20;;;2.45;;
75698;SDS011;64313;51.018;13.742;2023-08-24T07:52:09;5.97;;;2.42;;
75698;SDS011;64313;51.018;13.742;2023-08-24T07:54:37;5.18;;;2.40;;
75698;SDS011;64313;51.018;13.742;2023-08-24T07:57:04;7.53;;;2.53;;
75698;SDS011;64313;51.018;13.742;2023-08-24T07:59:30;4.53;;;2.42;;
75698;SDS011;64313;51.018;13.742;2023-08-24T08:01:56;5.40;;;2.60;;
75698;SDS011;64313;51.018;13.742;2023-08-24T08:04:21;4.82;;;2.30;;
75698;SDS011;64313;51.018;13.742;2023-08-24T08:06:46;4.53;;;2.53;;
75698;SDS011;64313;51.018;13.742;2023-08-24T08:09:12;7.32;;;2.83;;
75698;SDS011;64313;51.018;13.742;2023-08-24T08:11:38;4.93;;;2.22;;
75698;SDS011;64313;51.018;13.742;2023-08-24T08:14:03;4.65;;;2.42;;
75698;SDS011;64313;51.018;13.742;2023-08-24T08:16:28;7.38;;;2.53;;
75698;SDS011;64313;51.018;13.742;2023-08-24T08:18:54;7.22;;;2.60;;
75698;SDS011;64313;51.018;13.742;2023-08-24T08:21:19;3.90;;;2.40;;
75698;SDS011;64313;51.018;13.742;2023-08-24T08:23:45;6.25;;;2.38;;
75698;SDS011;64313;51.018;13.742;2023-08-24T08:26:11;5.72;;;2.47;;
75698;SDS011;64313;51.018;13.742;2023-08-24T08:28:38;7.10;;;2.47;;
75698;SDS011;64313;51.018;13.742;2023-08-24T08:31:04;6.65;;;2.40;;
75698;SDS011;64313;51.018;13.742;2023-08-24T08:33:29;5.65;;;2.40;;
75698;SDS011;64313;51.018;13.742;2023-08-24T08:35:55;5.57;;;2.80;;
75698;SDS011;64313;51.018;13.742;2023-08-24T08:38:21;5.82;;;2.58;;
75698;SDS011;64313;51.018;13.742;2023-08-24T08:40:50;6.53;;;2.63;;
75698;SDS011;64313;51.018;13.742;2023-08-24T08:43:18;6.25;;;2.35;;
75698;SDS011;64313;51.018;13.742;2023-08-24T08:45:46;5.60;;;2.30;;
75698;SDS011;64313;51.018;13.742;2023-08-24T08:48:13;7.00;;;2.53;;
75698;SDS011;64313;51.018;13.742;2023-08-24T08:50:39;4.50;;;2.20;;
75698;SDS011;64313;51.018;13.742;2023-08-24T08:53:04;6.63;;;2.50;;
75698;SDS011;64313;51.018;13.742;2023-08-24T08:55:30;5.82;;;2.20;;
75698;SDS011;64313;51.018;13.742;2023-08-24T08:57:56;6.40;;;2.33;;
75698;SDS011;64313;51.018;13.742;2023-08-24T09:00:23;5.88;;;2.42;;
75698;SDS011;64313;51.018;13.742;2023-08-24T09:02:49;4.65;;;2.20;;
75698;SDS011;64313;51.018;13.742;2023-08-24T09:05:18;5.03;;;2.33;;
75698;SDS011;64313;51.018;13.742;2023-08-24T09:07:44;4.95;;;2.30;;
75698;SDS011;64313;51.018;13.742;2023-08-24T09:10:12;6.07;;;2.30;;
75698;SDS011;64313;51.018;13.742;2023-08-24T09:12:38;4.68;;;2.13;;
75698;SDS011;64313;51.018;13.742;2023-08-24T09:15:06;4.85;;;2.20;;
75698;SDS011;64313;51.018;13.742;2023-08-24T09:17:34;4.85;;;2.10;;
75698;SDS011;64313;51.018;13.742;2023-08-24T09:20:00;6.70;;;2.20;;
75698;SDS011;64313;51.018;13.742;2023-08-24T09:22:35;5.85;;;2.25;;
75698;SDS011;64313;51.018;13.742;2023-08-24T09:25:01;4.82;;;2.47;;
75698;SDS011;64313;51.018;13.742;2023-08-24T09:27:29;5.82;;;2.22;;
75698;SDS011;64313;51.018;13.742;2023-08-24T09:29:55;4.45;;;2.25;;
75698;SDS011;64313;51.018;13.742;2023-08-24T09:32:30;4.65;;;2.17;;
75698;SDS011;64313;51.018;13.742;2023-08-24T09:35:01;5.72;;;2.22;;
75698;SDS011;64313;51.018;13.742;2023-08-24T09:37:34;5.25;;;2.05;;
75698;SDS011;64313;51.018;13.742;2023-08-24T09:40:01;4.80;;;2.38;;
75698;SDS011;64313;51.018;13.742;2023-08-24T09:42:36;6.03;;;2.15;;
75698;SDS011;64313;51.018;13.742;2023-08-24T09:45:04;4.65;;;2.10;;
75698;SDS011;64313;51.018;13.742;2023-08-24T09:47:29;4.65;;;1.95;;
75698;SDS011;64313;51.018;13.742;2023-08-24T09:49:55;4.53;;;2.00;;
75698;SDS011;64313;51.018;13.742;2023-08-24T09:52:20;4.43;;;1.88;;
75698;SDS011;64313;51.018;13.742;2023-08-24T09:54:46;5.28;;;2.17;;
75698;SDS011;64313;51.018;13.742;2023-08-24T09:57:14;4.60;;;2.03;;
75698;SDS011;64313;51.018;13.742;2023-08-24T09:59:40;6.00;;;2.30;;
75698;SDS011;64313;51.018;13.742;2023-08-24T10:02:15;4.63;;;2.10;;
75698;SDS011;64313;51.018;13.742;2023-08-24T10:04:42;5.05;;;2.33;;
75698;SDS011;64313;51.018;13.742;2023-08-24T10:07:10;4.88;;;2.47;;
75698;SDS011;64313;51.018;13.742;2023-08-24T10:10:02;5.28;;;2.20;;
75698;SDS011;64313;51.018;13.742;2023-08-24T10:12:28;4.55;;;2.25;;
75698;SDS011;64313;51.018;13.742;2023-08-24T10:15:01;4.32;;;2.05;;
75698;SDS011;64313;51.018;13.742;2023-08-24T10:17:29;4.22;;;2.10;;
75698;SDS011;64313;51.018;13.742;2023-08-24T10:19:56;5.75;;;2.35;;
75698;SDS011;64313;51.018;13.742;2023-08-24T10:22:25;5.72;;;2.22;;
75698;SDS011;64313;51.018;13.742;2023-08-24T10:24:53;5.85;;;2.30;;
75698;SDS011;64313;51.018;13.742;2023-08-24T10:27:19;6.47;;;2.20;;
75698;SDS011;64313;51.018;13.742;2023-08-24T10:29:46;4.53;;;2.20;;
75698;SDS011;64313;51.018;13.742;2023-08-24T10:32:11;5.93;;;2.45;;
75698;SDS011;64313;51.018;13.742;2023-08-24T10:34:38;5.50;;;2.20;;
75698;SDS011;64313;51.018;13.742;2023-08-24T10:37:07;4.63;;;2.03;;
75698;SDS011;64313;51.018;13.742;2023-08-24T10:39:34;4.65;;;2.30;;
75698;SDS011;64313;51.018;13.742;2023-08-24T10:42:03;4.75;;;2.20;;
75698;SDS011;64313;51.018;13.742;2023-08-24T10:44:35;6.95;;;1.98;;
75698;SDS011;64313;51.018;13.742;2023-08-24T10:47:14;4.13;;;2.08;;
75698;SDS011;64313;51.018;13.742;2023-08-24T10:49:40;6.57;;;2.40;;
75698;SDS011;64313;51.018;13.742;2023-08-24T10:55:01;4.60;;;2.17;;
75698;SDS011;64313;51.018;13.742;2023-08-24T10:57:35;6.85;;;2.33;;
75698;SDS011;64313;51.018;13.742;2023-08-24T11:00:07;5.63;;;2.40;;
75698;SDS011;64313;51.018;13.742;2023-08-24T11:02:41;4.90;;;2.10;;
75698;SDS011;64313;51.018;13.742;2023-08-24T11:05:14;4.15;;;1.95;;
75698;SDS011;64313;51.018;13.742;2023-08-24T11:07:53;5.00;;;2.10;;
75698;SDS011;64313;51.018;13.742;2023-08-24T11:13:07;5.38;;;2.28;;
75698;SDS011;64313;51.018;13.742;2023-08-24T11:15:34;4.63;;;2.00;;
75698;SDS011;64313;51.018;13.742;2023-08-24T11:18:12;5.63;;;1.90;;
75698;SDS011;64313;51.018;13.742;2023-08-24T11:20:46;5.55;;;2.25;;
75698;SDS011;64313;51.018;13.742;2023-08-24T11:23:24;5.57;;;2.08;;
75698;SDS011;64313;51.018;13.742;2023-08-24T11:25:52;4.95;;;2.00;;
75698;SDS011;64313;51.018;13.742;2023-08-24T11:28:21;5.30;;;2.28;;
75698;SDS011;64313;51.018;13.742;2023-08-24T11:30:48;4.55;;;2.25;;
75698;SDS011;64313;51.018;13.742;2023-08-24T11:33:14;4.82;;;2.20;;
75698;SDS011;64313;51.018;13.742;2023-08-24T11:35:43;5.07;;;2.00;;
75698;SDS011;64313;51.018;13.742;2023-08-24T11:38:09;5.75;;;1.90;;
75698;SDS011;64313;51.018;13.742;2023-08-24T11:40:35;5.22;;;2.38;;
75698;SDS011;64313;51.018;13.742;2023-08-24T11:43:01;6.03;;;2.28;;
75698;SDS011;64313;51.018;13.742;2023-08-24T11:45:31;5.18;;;2.28;;
75698;SDS011;64313;51.018;13.742;2023-08-24T11:47:58;4.45;;;2.17;;
75698;SDS011;64313;51.018;13.742;2023-08-24T11:50:29;4.85;;;2.10;;
75698;SDS011;64313;51.018;13.742;2023-08-24T11:52:55;4.40;;;2.03;;
75698;SDS011;64313;51.018;13.742;2023-08-24T11:55:21;7.00;;;2.42;;
75698;SDS011;64313;51.018;13.742;2023-08-24T11:57:50;4.38;;;2.13;;
75698;SDS011;64313;51.018;13.742;2023-08-24T12:00:16;8.13;;;2.17;;
75698;SDS011;64313;51.018;13.742;2023-08-24T12:02:44;5.65;;;2.50;;
75698;SDS011;64313;51.018;13.742;2023-08-24T12:05:20;4.63;;;1.92;;
75698;SDS011;64313;51.018;13.742;2023-08-24T12:07:50;4.35;;;1.98;;
75698;SDS011;64313;51.018;13.742;2023-08-24T12:10:16;5.70;;;2.40;;
75698;SDS011;64313;51.018;13.742;2023-08-24T12:12:42;4.43;;;2.22;;
75698;SDS011;64313;51.018;13.742;2023-08-24T12:15:14;5.65;;;1.90;;
75698;SDS011;64313;51.018;13.742;2023-08-24T12:17:43;6.60;;;2.55;;
75698;SDS011;64313;51.018;13.742;2023-08-24T12:20:16;5.32;;;2.33;;
75698;SDS011;64313;51.018;13.742;2023-08-24T12:22:43;5.70;;;2.30;;
75698;SDS011;64313;51.018;13.742;2023-08-24T12:25:08;5.60;;;2.28;;
75698;SDS011;64313;51.018;13.742;2023-08-24T12:27:34;4.68;;;2.13;;
75698;SDS011;64313;51.018;13.742;2023-08-24T12:30:02;6.85;;;2.20;;
75698;SDS011;64313;51.018;13.742;2023-08-24T12:32:41;4.10;;;2.00;;
75698;SDS011;64313;51.018;13.742;2023-08-24T12:35:11;5.13;;;2.20;;
75698;SDS011;64313;51.018;13.742;2023-08-24T12:37:37;5.15;;;1.90;;
75698;SDS011;64313;51.018;13.742;2023-08-24T12:40:02;5.40;;;2.13;;
75698;SDS011;64313;51.018;13.742;2023-08-24T12:42:31;5.50;;;2.45;;
75698;SDS011;64313;51.018;13.742;2023-08-24T12:44:56;6.13;;;2.13;;
75698;SDS011;64313;51.018;13.742;2023-08-24T12:47:22;4.07;;;2.08;;
75698;SDS011;64313;51.018;13.742;2023-08-24T12:49:47;4.53;;;2.10;;
75698;SDS011;64313;51.018;13.742;2023-08-24T12:52:13;5.15;;;2.10;;
75698;SDS011;64313;51.018;13.742;2023-08-24T12:54:38;5.38;;;1.98;;
75698;SDS011;64313;51.018;13.742;2023-08-24T12:57:04;6.30;;;1.92;;
75698;SDS011;64313;51.018;13.742;2023-08-24T12:59:29;4.80;;;2.22;;
75698;SDS011;64313;51.018;13.742;2023-08-24T13:01:54;4.85;;;2.30;;
75698;SDS011;64313;51.018;13.742;2023-08-24T13:04:20;4.50;;;2.05;;
75698;SDS011;64313;51.018;13.742;2023-08-24T13:06:45;5.85;;;2.22;;
75698;SDS011;64313;51.018;13.742;2023-08-24T13:09:10;4.72;;;2.20;;
75698;SDS011;64313;51.018;13.742;2023-08-24T13:11:37;4.90;;;2.10;;
75698;SDS011;64313;51.018;13.742;2023-08-24T13:14:02;5.50;;;2.20;;
75698;SDS011;64313;51.018;13.742;2023-08-24T13:16:28;5.28;;;2.45;;
75698;SDS011;64313;51.018;13.742;2023-08-24T13:18:53;5.25;;;2.20;;
75698;SDS011;64313;51.018;13.742;2023-08-24T13:21:19;4.95;;;2.17;;
75698;SDS011;64313;51.018;13.742;2023-08-24T13:23:45;5.57;;;2.20;;
75698;SDS011;64313;51.018;13.742;2023-08-24T13:26:20;5.10;;;2.17;;
75698;SDS011;64313;51.018;13.742;2023-08-24T13:28:46;5.90;;;2.50;;
75698;SDS011;64313;51.018;13.742;2023-08-24T13:31:12;5.15;;;2.33;;
75698;SDS011;64313;51.018;13.742;2023-08-24T13:33:38;6.35;;;2.20;;
75698;SDS011;64313;51.018;13.742;2023-08-24T13:36:03;6.47;;;2.30;;
75698;SDS011;64313;51.018;13.742;2023-08-24T13:38:29;7.40;;;2.67;;
75698;SDS011;64313;51.018;13.742;2023-08-24T13:40:55;5.80;;;2.50;;
75698;SDS011;64313;51.018;13.742;2023-08-24T13:43:20;5.75;;;2.53;;
75698;SDS011;64313;51.018;13.742;2023-08-24T13:45:46;4.78;;;2.58;;
75698;SDS011;64313;51.018;13.742;2023-08-24T13:48:11;4.75;;;2.35;;
75698;SDS011;64313;51.018;13.742;2023-08-24T13:50:36;4.90;;;2.38;;
75698;SDS011;64313;51.018;13.742;2023-08-24T13:53:02;5.68;;;2.50;;
75698;SDS011;64313;51.018;13.742;2023-08-24T13:55:28;5.38;;;2.40;;
75698;SDS011;64313;51.018;13.742;2023-08-24T13:57:54;4.82;;;2.25;;
75698;SDS011;64313;51.018;13.742;2023-08-24T14:00:19;5.35;;;2.53;;
75698;SDS011;64313;51.018;13.742;2023-08-24T14:02:48;5.55;;;2.50;;
75698;SDS011;64313;51.018;13.742;2023-08-24T14:05:14;6.70;;;2.60;;
75698;SDS011;64313;51.018;13.742;2023-08-24T14:07:39;4.47;;;2.33;;
75698;SDS011;64313;51.018;13.742;2023-08-24T14:10:05;7.50;;;2.55;;
75698;SDS011;64313;51.018;13.742;2023-08-24T14:12:32;5.85;;;2.53;;
75698;SDS011;64313;51.018;13.742;2023-08-24T14:14:58;4.60;;;2.50;;
75698;SDS011;64313;51.018;13.742;2023-08-24T14:17:23;5.93;;;2.40;;
75698;SDS011;64313;51.018;13.742;2023-08-24T14:19:48;6.97;;;2.83;;
75698;SDS011;64313;51.018;13.742;2023-08-24T14:22:14;5.13;;;2.60;;
75698;SDS011;64313;51.018;13.742;2023-08-24T14:24:39;5.57;;;2.72;;
75698;SDS011;64313;51.018;13.742;2023-08-24T14:27:04;5.43;;;2.45;;
75698;SDS011;64313;51.018;13.742;2023-08-24T14:29:29;6.82;;;2.63;;
75698;SDS011;64313;51.018;13.742;2023-08-24T14:31:55;4.65;;;2.30;;
75698;SDS011;64313;51.018;13.742;2023-08-24T14:34:20;6.50;;;2.80;;
75698;SDS011;64313;51.018;13.742;2023-08-24T14:36:45;6.25;;;2.70;;
75698;SDS011;64313;51.018;13.742;2023-08-24T14:39:11;6.68;;;2.92;;